KBGM

Greater Binghamton / Edwin A Link Field Airport

Binghamton, New York, USA
METAR KBGM 181253Z 36015G21KT 4SM -SN SCT017 OVC022 M06/M09 A3001 RMK AO2 SNE01B38 SLP182 P0000 T10611094
Observed Flight Rules
Dec-18 @ 12:53 UTC (16 minutes ago) Marginal Visual Flight Rules
Wind Visibility Clouds Conditions
360° at 15 knots
 Gusting to 21 knots
4 miles
  • Scattered at 1,700' AGL
  • Overcast at 2,200' AGL
  • Light Snow
Temperatures Readings Precipitation
Current -6°C / 21°F
Dewpoint -9°C / 16°F
Humidity 80%
Altimeter 30.01" Hg
Pressure 1018.2 hPa
Elevation 490
Current Rain 0.005
METAR KBGM 181253Z 36015G21KT 4SM -SN SCT017 OVC022 M06/M09 A3001 RMK AO2 SNE01B38 SLP182 P0000 T10611094
Observed Flight Rules
Dec-18 @ 12:53 UTC
(16 minutes ago)
MVFR
Wind Visibility
360° at 15 knots
 Gusting to 21 knots
4 miles
Clouds
  • Scattered at 1,700' AGL
  • Overcast at 2,200' AGL
Conditions
  • Light Snow
Temperature Dewpoint
-6°C / 21°F -9°C / 16°F
Humidity Altimeter Pressure
80% 30.01" Hg 1018.2 hPa
Current Rain
0.005